Time;durP1;ratioP1;P1;durP2;ratioP2;P2;SDS_P1;SDS_P2;PMS_P1;PMS_P2;Temp;Humidity;BMP_temperature;BMP_pressure;BME280_temperature;BME280_humidity;BME280_pressure;Samples;Min_cycle;Max_cycle;Signal;HPM_P1;HPM_P2
2022/03/17 00:01:53;;;;;;;26.13;22.20;;;;;;;10.85;67.90;101822.13;5080018;28;20116;-70
2022/03/17 00:04:21;;;;;;;24.55;21.48;;;;;;;10.86;67.66;101826.50;5076797;28;20023;-70
2022/03/17 00:06:47;;;;;;;24.52;21.92;;;;;;;10.83;67.57;101818.66;5101191;28;20027;-70
2022/03/17 00:09:13;;;;;;;26.60;22.00;;;;;;;10.87;67.92;101827.38;5100954;28;20026;-70
2022/03/17 00:11:39;;;;;;;27.70;22.45;;;;;;;10.89;67.36;101817.50;5077102;28;20029;-70
2022/03/17 00:14:04;;;;;;;26.13;22.52;;;;;;;10.85;67.86;101807.94;5085719;28;20118;-70
2022/03/17 00:16:32;;;;;;;27.23;21.70;;;;;;;10.84;67.97;101814.22;5073360;28;20035;-70
2022/03/17 00:18:58;;;;;;;28.40;22.67;;;;;;;10.84;68.14;101811.53;5108056;28;20028;-70
2022/03/17 00:21:24;;;;;;;26.05;21.80;;;;;;;10.81;68.16;101814.34;5106742;28;20072;-70
2022/03/17 00:23:50;;;;;;;29.40;22.25;;;;;;;10.77;68.26;101805.66;5070015;28;20055;-70
2022/03/17 00:26:17;;;;;;;28.00;21.42;;;;;;;10.68;68.49;101804.31;5093656;28;20036;-70
2022/03/17 00:28:42;;;;;;;26.88;21.90;;;;;;;10.72;68.28;101807.69;5095771;28;20522;-70
2022/03/17 00:31:08;;;;;;;26.65;22.40;;;;;;;10.72;68.76;101806.81;5080994;28;20153;-70
2022/03/17 00:33:34;;;;;;;27.38;22.55;;;;;;;10.67;69.17;101807.88;5101702;28;20050;-70
2022/03/17 00:36:02;;;;;;;27.15;21.92;;;;;;;10.65;69.23;101807.13;5095076;28;20378;-70
2022/03/17 00:38:27;;;;;;;27.48;22.83;;;;;;;10.65;69.11;101807.13;5098667;28;20055;-70
2022/03/17 00:40:53;;;;;;;29.33;23.45;;;;;;;10.63;69.21;101816.97;5086213;28;20063;-70
2022/03/17 00:43:22;;;;;;;26.70;22.20;;;;;;;10.61;68.98;101812.66;5091728;28;20019;-70
2022/03/17 00:45:48;;;;;;;30.73;23.67;;;;;;;10.57;69.50;101803.97;5101850;28;20165;-70
2022/03/17 00:48:13;;;;;;;24.38;21.48;;;;;;;10.61;69.57;101818.81;5091282;28;20114;-70
2022/03/17 00:50:39;;;;;;;24.90;22.02;;;;;;;10.63;69.56;101818.78;5085790;28;20039;-70
2022/03/17 00:53:05;;;;;;;27.88;21.92;;;;;;;10.61;69.30;101815.31;5095861;28;20154;-70
2022/03/17 00:55:30;;;;;;;26.70;21.83;;;;;;;10.63;69.55;101816.97;5092005;28;20059;-70
2022/03/17 00:57:56;;;;;;;27.38;22.90;;;;;;;10.63;69.53;101824.09;5087962;28;20066;-70
2022/03/17 01:00:22;;;;;;;27.05;22.85;;;;;;;10.63;69.73;101818.78;5080822;28;20035;-70
2022/03/17 01:02:52;;;;;;;27.23;22.25;;;;;;;10.62;69.85;101825.03;5095666;28;20016;-70
2022/03/17 01:05:18;;;;;;;32.55;21.50;;;;;;;10.61;69.56;101823.28;5095870;28;20020;-70
2022/03/17 01:07:46;;;;;;;26.33;21.90;;;;;;;10.58;70.22;101828.75;5103626;28;20024;-71
2022/03/17 01:10:16;;;;;;;27.13;23.35;;;;;;;10.58;70.28;101824.28;5104254;28;20051;-70
2022/03/17 01:12:44;;;;;;;31.63;22.48;;;;;;;10.58;70.22;101826.09;5107785;28;20403;-70
2022/03/17 01:15:10;;;;;;;26.60;21.83;;;;;;;10.57;70.51;101827.03;5096294;28;20073;-70
2022/03/17 01:17:35;;;;;;;32.50;23.42;;;;;;;10.61;70.18;101823.28;5076403;28;20024;-70
2022/03/17 01:20:04;;;;;;;26.52;22.65;;;;;;;10.59;70.76;101820.72;5106552;28;20134;-70
2022/03/17 01:22:30;;;;;;;27.23;22.07;;;;;;;10.51;70.38;101800.72;5089329;28;20031;-70
2022/03/17 01:24:55;;;;;;;30.45;23.55;;;;;;;10.59;70.93;101819.81;5092617;28;20648;-70
2022/03/17 01:27:23;;;;;;;28.58;22.73;;;;;;;10.60;70.56;101816.25;5073314;28;20394;-70
2022/03/17 01:29:54;;;;;;;27.63;23.23;;;;;;;10.56;70.74;101823.53;5077385;28;20084;-70
2022/03/17 01:32:21;;;;;;;28.35;23.42;;;;;;;10.58;70.73;101818.13;5110592;28;20367;-70
2022/03/17 01:34:47;;;;;;;31.70;23.58;;;;;;;10.57;71.25;101822.56;5080374;28;20051;-70
2022/03/17 01:37:12;;;;;;;30.92;23.77;;;;;;;10.61;71.08;101825.94;5061025;28;20540;-70
2022/03/17 01:39:38;;;;;;;30.35;23.95;;;;;;;10.65;71.32;101814.25;5110677;28;20119;-70
2022/03/17 01:42:08;;;;;;;30.38;23.27;;;;;;;10.59;70.96;101812.75;5102722;28;20031;-70
2022/03/17 01:44:34;;;;;;;29.38;23.58;;;;;;;10.63;71.17;101814.31;5075486;28;20016;-70
2022/03/17 01:49:44;;;;;;;32.08;24.10;;;;;;;10.63;71.24;101824.94;5098641;28;20414;-70
2022/03/17 01:52:13;;;;;;;27.65;22.70;;;;;;;10.62;71.56;101823.22;5079434;28;20020;-70
2022/03/17 01:54:38;;;;;;;30.25;22.85;;;;;;;10.62;72.00;101817.06;5083478;28;20410;-70
2022/03/17 01:57:10;;;;;;;30.10;22.88;;;;;;;10.63;72.07;101821.44;5107570;28;20024;-70
2022/03/17 01:59:37;;;;;;;28.85;23.55;;;;;;;10.65;72.16;101823.09;5112085;28;20034;-70
2022/03/17 02:02:12;;;;;;;26.73;23.33;;;;;;;10.64;71.84;101825.81;5065994;28;20545;-70
2022/03/17 02:04:40;;;;;;;28.52;23.48;;;;;;;10.58;72.27;101816.31;5070505;28;20028;-70
2022/03/17 02:07:07;;;;;;;28.35;23.52;;;;;;;10.55;72.45;101807.63;5076765;28;20024;-70
2022/03/17 02:09:36;;;;;;;28.52;23.60;;;;;;;10.60;72.69;101818.91;5081067;28;20491;-70
2022/03/17 02:14:52;;;;;;;27.17;23.23;;;;;;;10.62;72.60;101819.72;5102953;28;20046;-70
2022/03/17 02:17:18;;;;;;;31.02;24.17;;;;;;;10.57;72.99;101829.69;5084664;28;20043;-70
2022/03/17 02:19:44;;;;;;;31.85;23.98;;;;;;;10.60;73.19;101830.41;5077357;28;20112;-70
2022/03/17 02:22:13;;;;;;;38.17;23.48;;;;;;;10.65;73.01;101833.72;5099212;28;20015;-70
2022/03/17 02:27:28;;;;;;;31.25;23.50;;;;;;;10.58;73.53;101831.41;5097486;28;20403;-70
2022/03/17 02:29:54;;;;;;;32.78;23.95;;;;;;;10.62;73.63;101835.69;5081775;28;20023;-70
2022/03/17 02:32:22;;;;;;;37.10;23.77;;;;;;;10.61;73.90;101841.91;5068201;28;20364;-70
2022/03/17 02:34:50;;;;;;;30.98;23.88;;;;;;;10.58;73.83;101839.41;5088616;28;20063;-70
2022/03/17 02:37:16;;;;;;;29.90;23.83;;;;;;;10.63;73.96;101848.88;5102386;28;20387;-70
2022/03/17 02:39:42;;;;;;;32.58;25.65;;;;;;;10.64;74.53;101850.59;5078644;28;20561;-70
2022/03/17 02:42:10;;;;;;;36.20;25.98;;;;;;;10.69;75.19;101856.56;5108377;28;20098;-70
2022/03/17 02:44:36;;;;;;;32.03;25.95;;;;;;;10.64;75.69;101845.28;5100703;28;20035;-70
2022/03/17 02:47:02;;;;;;;36.55;25.98;;;;;;;10.71;76.10;101855.63;5074062;28;20035;-70
2022/03/17 02:49:28;;;;;;;36.97;28.25;;;;;;;10.77;76.99;101850.91;5079573;28;20019;-69
2022/03/17 02:51:54;;;;;;;37.92;28.83;;;;;;;10.82;77.38;101869.28;5069275;28;20098;-70
2022/03/17 02:54:19;;;;;;;43.05;29.77;;;;;;;10.84;78.85;101872.75;5102887;28;20027;-69
2022/03/17 02:56:47;;;;;;;44.20;33.22;;;;;;;10.86;80.19;101882.41;5096455;28;20035;-70
2022/03/17 02:59:13;;;;;;;39.63;31.92;;;;;;;10.88;80.94;101888.53;5105965;28;20522;-69
2022/03/17 03:01:38;;;;;;;42.88;32.90;;;;;;;10.88;82.17;101903.59;5082334;28;20143;-70
2022/03/17 03:04:04;;;;;;;42.70;31.95;;;;;;;10.86;82.97;101908.16;5073229;28;20157;-70
2022/03/17 03:06:32;;;;;;;40.22;30.27;;;;;;;10.85;83.64;101898.41;5065313;28;20131;-69
2022/03/17 03:08:59;;;;;;;35.08;26.20;;;;;;;10.78;84.62;101912.97;5089019;28;20031;-70
2022/03/17 03:11:25;;;;;;;30.60;23.60;;;;;;;10.67;85.31;101913.44;5075078;28;20051;-70
2022/03/17 03:13:50;;;;;;;24.70;22.00;;;;;;;10.57;86.24;101921.00;5092417;28;20051;-70
2022/03/17 03:16:16;;;;;;;24.35;20.95;;;;;;;10.48;86.85;101937.38;5087390;28;20513;-69
2022/03/17 03:18:41;;;;;;;23.08;19.30;;;;;;;10.36;87.70;101946.78;5075851;28;20031;-69
2022/03/17 03:21:09;;;;;;;22.63;19.67;;;;;;;10.29;89.36;101955.09;5052541;28;20032;-70
2022/03/17 03:23:35;;;;;;;23.17;20.58;;;;;;;10.28;89.24;101956.88;5057775;28;20038;-69
2022/03/17 03:26:01;;;;;;;22.83;20.52;;;;;;;10.26;89.57;101961.38;5099839;28;20016;-70
2022/03/17 03:28:29;;;;;;;21.58;18.70;;;;;;;10.22;89.87;101965.97;5089808;28;20024;-69
2022/03/17 03:30:55;;;;;;;21.52;19.23;;;;;;;10.15;89.86;101969.81;5105473;28;20027;-70
2022/03/17 03:33:21;;;;;;;20.55;18.45;;;;;;;10.01;90.39;101967.75;5098496;28;20108;-70
2022/03/17 03:38:33;;;;;;;20.25;18.25;;;;;;;10.03;90.60;101991.63;5111088;28;20042;-70
2022/03/17 03:40:59;;;;;;;20.77;18.58;;;;;;;9.98;90.71;101990.94;5100355;28;20028;-69
2022/03/17 03:43:25;;;;;;;21.38;19.27;;;;;;;9.90;90.13;102001.03;5111054;28;20559;-69
2022/03/17 03:45:51;;;;;;;22.08;19.88;;;;;;;9.78;90.15;102000.59;5053024;28;20051;-70
2022/03/17 03:48:19;;;;;;;22.40;20.08;;;;;;;9.78;90.40;102016.53;5081139;28;20020;-69
2022/03/17 03:50:46;;;;;;;22.42;20.17;;;;;;;9.75;89.97;102023.78;5112400;28;20372;-70
2022/03/17 03:53:12;;;;;;;22.88;20.40;;;;;;;9.63;89.94;102033.09;5095144;28;20028;-70
2022/03/17 03:55:37;;;;;;;22.98;20.63;;;;;;;9.57;89.98;102040.47;5082782;28;20028;-70
2022/03/17 03:58:03;;;;;;;23.77;21.27;;;;;;;9.55;90.65;102048.47;5094704;28;20076;-70
2022/03/17 04:02:55;;;;;;;28.60;22.45;;;;;;;9.45;89.64;102066.56;5112928;28;20015;-70
2022/03/17 04:05:26;;;;;;;29.60;23.08;;;;;;;9.43;89.75;102071.06;5080912;28;20393;-69
2022/03/17 04:07:54;;;;;;;30.40;23.95;;;;;;;9.32;89.14;102084.78;5087707;28;20024;-70
2022/03/17 04:10:19;;;;;;;33.47;24.20;;;;;;;9.28;89.02;102084.94;5084658;28;20120;-69
2022/03/17 04:12:45;;;;;;;33.60;24.83;;;;;;;9.21;89.39;102104.69;5071054;28;20055;-70
2022/03/17 04:15:13;;;;;;;32.75;23.45;;;;;;;9.20;89.08;102105.59;5083274;28;20039;-70
2022/03/17 04:17:39;;;;;;;32.15;24.75;;;;;;;9.16;89.32;102118.09;5069068;28;20039;-70
2022/03/17 04:20:06;;;;;;;27.83;22.85;;;;;;;9.06;89.04;102120.25;5079882;28;20028;-70
2022/03/17 04:22:31;;;;;;;32.50;24.88;;;;;;;9.06;89.82;102128.19;5085856;28;20040;-70
2022/03/17 04:24:57;;;;;;;27.80;22.15;;;;;;;9.03;88.95;102133.63;5056845;28;20043;-69
2022/03/17 04:27:22;;;;;;;24.65;20.05;;;;;;;8.96;87.76;102153.31;5075549;28;20028;-70
2022/03/17 04:29:48;;;;;;;23.83;19.25;;;;;;;8.92;87.40;102158.81;5100315;28;20035;-69
2022/03/17 04:32:14;;;;;;;26.55;19.30;;;;;;;8.83;86.85;102154.69;5093816;28;20067;-70
2022/03/17 04:34:39;;;;;;;28.10;20.10;;;;;;;8.74;87.23;102163.81;5086368;28;20452;-69
2022/03/17 04:37:05;;;;;;;28.70;20.35;;;;;;;8.75;86.87;102175.28;5059927;28;20058;-69
2022/03/17 04:39:30;;;;;;;28.67;20.67;;;;;;;8.75;86.71;102184.13;5099587;28;20039;-69
2022/03/17 04:41:56;;;;;;;29.95;20.75;;;;;;;8.74;87.21;102193.00;5076434;28;20035;-70
2022/03/17 04:44:22;;;;;;;29.15;20.75;;;;;;;8.69;87.00;102196.72;5100934;28;20036;-69
2022/03/17 04:46:48;;;;;;;31.00;20.10;;;;;;;8.63;86.72;102198.66;5065127;28;20047;-69
2022/03/17 04:49:14;;;;;;;30.42;19.02;;;;;;;8.59;86.58;102206.78;5099590;28;20098;-69
2022/03/17 04:51:42;;;;;;;29.58;19.52;;;;;;;8.50;85.95;102221.19;5102318;28;20047;-69
2022/03/17 04:54:07;;;;;;;29.63;17.60;;;;;;;8.49;86.02;102223.88;5112509;28;20036;-69
2022/03/17 04:56:33;;;;;;;25.30;16.15;;;;;;;8.37;85.38;102218.03;5108151;28;20540;-70
2022/03/17 04:58:58;;;;;;;22.92;16.25;;;;;;;8.38;84.90;102230.41;5080514;28;20030;-69
2022/03/17 05:01:24;;;;;;;24.65;17.08;;;;;;;8.39;84.54;102236.59;5070433;28;20028;-69
2022/03/17 05:03:50;;;;;;;23.20;17.40;;;;;;;8.44;84.55;102249.66;5084244;28;20031;-69
2022/03/17 05:06:16;;;;;;;32.25;17.10;;;;;;;8.44;84.08;102260.28;5078787;28;20558;-70
2022/03/17 05:08:42;;;;;;;31.83;16.88;;;;;;;8.44;84.02;102262.94;5096840;28;20110;-69
2022/03/17 05:11:09;;;;;;;26.42;15.75;;;;;;;8.46;83.95;102261.97;5103762;28;20054;-70
2022/03/17 05:13:37;;;;;;;23.88;13.38;;;;;;;8.49;84.00;102275.13;5080650;28;20101;-69
2022/03/17 05:16:04;;;;;;;24.73;13.30;;;;;;;8.48;82.62;102296.41;5108140;28;20055;-70
2022/03/17 05:18:33;;;;;;;22.90;12.10;;;;;;;8.46;82.09;102309.69;5074985;28;20016;-70
2022/03/17 05:20:58;;;;;;;15.88;9.70;;;;;;;8.28;80.61;102297.84;5100542;28;20024;-70
2022/03/17 05:23:24;;;;;;;22.10;10.75;;;;;;;8.35;80.36;102317.97;5096469;28;20030;-69
2022/03/17 05:25:50;;;;;;;19.55;9.45;;;;;;;8.27;79.65;102325.25;5087504;28;20062;-69
2022/03/17 05:28:19;;;;;;;22.25;8.93;;;;;;;8.29;79.66;102334.03;5112581;28;20482;-69
2022/03/17 05:30:45;;;;;;;19.45;7.50;;;;;;;8.26;79.30;102336.75;5089069;28;20032;-70
2022/03/17 05:33:11;;;;;;;14.85;7.15;;;;;;;8.23;79.06;102331.56;5088402;28;20103;-69
2022/03/17 05:35:40;;;;;;;16.27;8.45;;;;;;;8.23;78.78;102338.63;5103677;28;20078;-69
2022/03/17 05:38:07;;;;;;;13.15;7.57;;;;;;;8.28;78.75;102355.28;5101724;28;20488;-69
2022/03/17 05:40:32;;;;;;;16.75;8.25;;;;;;;8.33;78.27;102351.59;5090188;28;20015;-70
2022/03/17 05:43:01;;;;;;;15.55;7.20;;;;;;;8.36;77.50;102366.53;5082133;28;20378;-70
2022/03/17 05:45:27;;;;;;;15.73;6.60;;;;;;;8.35;77.55;102376.28;5094710;28;20103;-70
2022/03/17 05:47:58;;;;;;;17.48;6.53;;;;;;;8.32;77.01;102383.44;5095844;28;20111;-70
2022/03/17 05:50:26;;;;;;;14.63;6.18;;;;;;;8.30;77.43;102386.13;5087612;28;20028;-69
2022/03/17 05:52:52;;;;;;;15.23;7.07;;;;;;;8.30;76.90;102391.44;5104025;28;20027;-70
2022/03/17 05:55:23;;;;;;;14.93;7.25;;;;;;;8.29;76.68;102392.34;5093562;28;20031;-69
2022/03/17 05:57:52;;;;;;;14.57;7.63;;;;;;;8.26;76.57;102405.69;5099513;28;20381;-69
2022/03/17 06:00:23;;;;;;;13.63;6.85;;;;;;;8.20;77.02;102411.16;5110128;28;20024;-70
2022/03/17 06:02:50;;;;;;;16.38;6.93;;;;;;;8.24;76.91;102414.59;5079369;28;20115;-70
2022/03/17 06:05:15;;;;;;;11.88;6.47;;;;;;;8.23;77.05;102426.09;5095373;28;20139;-69
2022/03/17 06:07:46;;;;;;;13.93;7.03;;;;;;;8.25;77.24;102427.81;5073046;28;20425;-69
2022/03/17 06:10:14;;;;;;;12.18;6.40;;;;;;;8.24;77.54;102434.03;5097105;28;20050;-69
2022/03/17 06:12:40;;;;;;;14.50;7.15;;;;;;;8.26;78.07;102450.75;5099887;28;20044;-69
2022/03/17 06:15:07;;;;;;;13.18;7.30;;;;;;;8.27;78.02;102443.69;5100812;28;20032;-70
2022/03/17 06:17:57;;;;;;;13.10;7.13;;;;;;;8.35;78.26;102458.47;5091159;28;20045;-69
2022/03/17 06:20:27;;;;;;;15.38;6.88;;;;;;;8.23;78.24;102464.06;5067453;28;20039;-69
2022/03/17 06:22:55;;;;;;;12.23;6.78;;;;;;;8.27;78.80;102464.88;5077967;28;20056;-69
2022/03/17 06:25:22;;;;;;;13.48;6.32;;;;;;;8.29;78.95;102477.16;5106860;28;20140;-69
2022/03/17 06:27:49;;;;;;;17.73;6.50;;;;;;;8.25;78.74;102478.16;5088200;28;20599;-70
2022/03/17 06:30:19;;;;;;;17.88;6.60;;;;;;;8.29;78.97;102481.59;5094382;28;20024;-69
2022/03/17 06:32:46;;;;;;;14.50;7.32;;;;;;;8.30;79.02;102488.66;5089997;28;20032;-70
2022/03/17 06:35:19;;;;;;;10.55;6.20;;;;;;;8.33;78.64;102494.75;5087993;28;20024;-69
2022/03/17 06:37:52;;;;;;;14.88;7.10;;;;;;;8.29;78.28;102487.75;5095323;28;20020;-71
2022/03/17 06:40:18;;;;;;;9.07;6.00;;;;;;;8.29;78.21;102503.66;5110959;28;20024;-70
2022/03/17 06:42:45;;;;;;;16.48;6.60;;;;;;;8.31;77.70;102515.09;5090083;28;20030;-69
2022/03/17 06:45:11;;;;;;;12.45;6.03;;;;;;;8.19;77.98;102521.59;5100454;28;20056;-69
2022/03/17 06:47:37;;;;;;;9.65;6.00;;;;;;;8.16;77.18;102528.78;5099658;28;20135;-69
2022/03/17 06:50:04;;;;;;;15.93;6.28;;;;;;;8.19;77.62;102534.00;5076317;28;20069;-69
2022/03/17 06:52:30;;;;;;;13.75;6.05;;;;;;;8.16;77.04;102542.03;5093875;28;20024;-69
2022/03/17 06:54:55;;;;;;;18.60;6.88;;;;;;;8.08;76.93;102538.69;5095429;28;20604;-69
2022/03/17 06:57:22;;;;;;;14.82;6.00;;;;;;;8.18;76.86;102553.47;5105988;28;20117;-69
2022/03/17 06:59:49;;;;;;;10.27;5.85;;;;;;;8.15;77.04;102551.75;5105784;28;20386;-68
2022/03/17 07:02:15;;;;;;;14.65;6.43;;;;;;;8.16;76.26;102561.44;5077971;28;20023;-68
2022/03/17 07:04:41;;;;;;;9.65;5.80;;;;;;;8.13;76.41;102565.94;5091718;28;20015;-69
2022/03/17 07:07:07;;;;;;;10.60;5.78;;;;;;;8.16;75.58;102568.53;5104080;28;20035;-69
2022/03/17 07:09:34;;;;;;;12.32;5.30;;;;;;;8.19;76.28;102581.69;5073874;28;20020;-69
2022/03/17 07:12:00;;;;;;;10.07;5.28;;;;;;;8.18;74.94;102579.97;5108364;28;20024;-69
2022/03/17 07:14:26;;;;;;;11.65;4.82;;;;;;;8.14;74.58;102578.28;5086952;28;20062;-69
2022/03/17 07:16:52;;;;;;;12.13;4.95;;;;;;;8.14;74.57;102597.69;5099369;28;20495;-69
2022/03/17 07:19:17;;;;;;;8.98;4.43;;;;;;;8.14;74.56;102592.41;5083546;28;20028;-68
2022/03/17 07:21:42;;;;;;;8.85;4.30;;;;;;;8.15;74.15;102593.28;5097914;28;20034;-69
2022/03/17 07:24:09;;;;;;;10.82;4.57;;;;;;;8.16;74.88;102602.97;5092323;28;20055;-69
2022/03/17 07:26:35;;;;;;;10.90;4.22;;;;;;;8.19;74.48;102603.75;5073170;28;20027;-69
2022/03/17 07:29:02;;;;;;;10.52;4.82;;;;;;;8.11;74.82;102608.38;5093690;28;20471;-69
2022/03/17 07:31:28;;;;;;;16.10;5.13;;;;;;;8.14;75.41;102624.19;5084625;28;20019;-68
2022/03/17 07:33:56;;;;;;;11.40;5.05;;;;;;;8.10;75.48;102627.84;5067648;28;20296;-69
2022/03/17 07:36:23;;;;;;;10.33;4.87;;;;;;;8.11;76.01;102640.19;5094203;28;20024;-69
2022/03/17 07:38:53;;;;;;;9.25;4.80;;;;;;;8.06;75.54;102642.09;5090547;28;20032;-68
2022/03/17 07:41:19;;;;;;;10.57;3.92;;;;;;;8.08;75.90;102664.09;5102445;28;20051;-69
2022/03/17 07:43:44;;;;;;;11.30;4.72;;;;;;;8.11;75.99;102655.22;5055489;28;20495;-69
2022/03/17 07:46:10;;;;;;;14.82;4.10;;;;;;;8.19;75.89;102659.44;5072623;28;20433;-69
2022/03/17 07:48:36;;;;;;;13.85;4.78;;;;;;;8.23;74.88;102664.66;5105437;28;20039;-69
2022/03/17 07:51:02;;;;;;;12.68;4.38;;;;;;;8.31;74.90;102662.69;5071730;28;20397;-69
2022/03/17 07:53:30;;;;;;;13.35;4.80;;;;;;;8.32;74.33;102665.28;5089585;28;20059;-69
2022/03/17 07:55:56;;;;;;;11.82;4.35;;;;;;;8.32;74.32;102672.38;5111045;28;20481;-69
2022/03/17 07:58:24;;;;;;;12.30;4.00;;;;;;;8.37;73.65;102681.97;5083053;28;20023;-69
2022/03/17 08:00:52;;;;;;;13.27;3.72;;;;;;;8.43;74.54;102683.63;5086199;28;20027;-69
2022/03/17 08:03:20;;;;;;;14.57;4.55;;;;;;;8.48;73.40;102687.06;5098685;28;20421;-69
2022/03/17 08:05:47;;;;;;;11.57;4.43;;;;;;;8.46;73.16;102694.16;5081316;28;20024;-68
2022/03/17 08:08:14;;;;;;;14.15;4.20;;;;;;;8.44;72.28;102703.06;5082660;28;21955;-69
2022/03/17 08:10:39;;;;;;;16.10;4.40;;;;;;;8.40;72.08;102707.56;5102446;28;20048;-69
2022/03/17 08:13:06;;;;;;;8.55;3.78;;;;;;;8.39;71.87;102711.13;5062784;28;20036;-69
2022/03/17 08:15:31;;;;;;;12.38;4.57;;;;;;;8.32;71.72;102697.09;5052940;28;20028;-69
2022/03/17 08:17:57;;;;;;;12.07;3.65;;;;;;;8.45;72.20;102718.94;5093666;28;20031;-68
2022/03/17 08:20:23;;;;;;;11.38;4.20;;;;;;;8.48;71.61;102721.53;5090571;28;20028;-69
2022/03/17 08:22:50;;;;;;;8.65;3.83;;;;;;;8.50;71.64;102726.78;5091757;28;20401;-69
2022/03/17 08:25:16;;;;;;;12.75;3.65;;;;;;;8.51;70.44;102732.06;5087621;28;20546;-69
2022/03/17 08:27:42;;;;;;;11.20;3.80;;;;;;;8.57;70.20;102737.22;5103785;28;20123;-69
2022/03/17 08:30:08;;;;;;;11.55;4.43;;;;;;;8.58;69.95;102740.72;5072239;28;21596;-68
2022/03/17 08:32:35;;;;;;;13.57;4.18;;;;;;;8.75;69.73;102756.25;5100580;28;20324;-69
2022/03/17 08:35:00;;;;;;;9.45;3.75;;;;;;;8.80;67.38;102764.97;5099433;28;20038;-68
2022/03/17 08:37:25;;;;;;;12.30;3.75;;;;;;;8.92;67.57;102767.31;5102359;28;20032;-69
2022/03/17 08:39:51;;;;;;;12.55;3.65;;;;;;;9.01;67.07;102776.81;5081804;28;20060;-69
2022/03/17 08:42:17;;;;;;;7.70;3.85;;;;;;;9.02;65.23;102778.56;5108947;28;20019;-68
2022/03/17 08:44:43;;;;;;;12.32;3.72;;;;;;;8.91;64.42;102781.47;5097627;28;20474;-68
2022/03/17 08:49:52;;;;;;;9.48;3.58;;;;;;;8.88;64.90;102802.78;5097299;28;20049;-69
2022/03/17 08:52:21;;;;;;;10.38;3.60;;;;;;;8.92;64.65;102790.31;5072777;28;20028;-69
2022/03/17 08:54:46;;;;;;;15.23;4.15;;;;;;;8.98;63.84;102803.44;5080715;28;20028;-69
2022/03/17 08:57:12;;;;;;;10.60;3.58;;;;;;;8.93;63.22;102805.31;5077324;28;20024;-69
2022/03/17 08:59:38;;;;;;;13.20;3.70;;;;;;;8.83;63.48;102802.91;5100409;28;20019;-69
2022/03/17 09:02:11;;;;;;;13.05;4.15;;;;;;;8.84;63.45;102796.66;5104083;28;20108;-68
2022/03/17 09:04:56;;;;;;;8.40;3.88;;;;;;;8.92;63.21;102811.56;5058147;28;20052;-69
2022/03/17 09:07:22;;;;;;;9.77;3.15;;;;;;;8.94;64.52;102813.25;5058454;28;20040;-68
2022/03/17 09:09:50;;;;;;;15.70;4.20;;;;;;;8.95;63.09;102811.47;5043691;28;20067;-68
2022/03/17 09:12:16;;;;;;;12.82;3.80;;;;;;;8.97;62.77;102822.91;5031076;28;20477;-69
2022/03/17 09:14:44;;;;;;;15.43;3.85;;;;;;;9.00;63.09;102821.06;5032389;28;20128;-69
2022/03/17 09:17:09;;;;;;;14.18;4.13;;;;;;;8.97;62.85;102822.91;5030004;28;20036;-68
2022/03/17 09:19:35;;;;;;;14.55;4.55;;;;;;;8.94;63.27;102841.56;5048805;28;20103;-68
2022/03/17 09:22:00;;;;;;;15.73;4.28;;;;;;;8.93;62.82;102838.03;5048668;28;20035;-68
2022/03/17 09:24:30;;;;;;;11.35;3.92;;;;;;;8.96;63.93;102845.91;5037342;28;20036;-68
2022/03/17 09:26:55;;;;;;;10.13;3.83;;;;;;;8.86;63.70;102849.72;5039468;28;20033;-69
2022/03/17 09:29:21;;;;;;;10.95;3.95;;;;;;;8.90;63.56;102850.50;5031927;28;20076;-69
2022/03/17 09:31:47;;;;;;;13.35;3.95;;;;;;;8.94;63.82;102850.41;5030160;28;20045;-69
2022/03/17 09:34:13;;;;;;;13.85;4.45;;;;;;;9.02;63.72;102851.06;5037644;28;20047;-69
2022/03/17 09:36:39;;;;;;;10.77;4.07;;;;;;;9.10;63.86;102858.88;5093720;28;20048;-69
2022/03/17 09:41:49;;;;;;;12.13;3.50;;;;;;;9.32;62.49;102875.13;5083609;28;20082;-69
2022/03/17 09:44:15;;;;;;;9.93;3.55;;;;;;;9.40;62.23;102874.94;5109841;28;20043;-69
2022/03/17 09:46:42;;;;;;;8.85;3.78;;;;;;;9.33;61.03;102875.09;5105919;28;20032;-69
2022/03/17 09:49:10;;;;;;;11.23;3.53;;;;;;;9.21;61.83;102869.22;5104760;28;20038;-69
2022/03/17 09:51:37;;;;;;;10.18;3.40;;;;;;;9.19;62.42;102863.06;5090068;28;20118;-69
2022/03/17 09:54:02;;;;;;;9.02;3.97;;;;;;;9.25;61.60;102889.47;5111225;28;20062;-69
2022/03/17 09:56:28;;;;;;;11.75;4.53;;;;;;;9.32;62.07;102883.09;5076143;28;20056;-69
2022/03/17 09:58:55;;;;;;;10.30;4.07;;;;;;;9.45;62.44;102897.81;5096191;28;20063;-69
2022/03/17 10:01:22;;;;;;;16.27;3.72;;;;;;;9.51;61.87;102900.31;5080917;28;20028;-69
2022/03/17 10:03:48;;;;;;;19.20;3.92;;;;;;;9.55;61.67;102901.09;5073800;28;20020;-69
2022/03/17 10:06:15;;;;;;;9.32;3.40;;;;;;;9.56;61.69;102921.47;5094465;28;20092;-69
2022/03/17 10:08:48;;;;;;;10.38;3.95;;;;;;;9.60;61.27;102924.91;5099330;28;20031;-69
2022/03/17 10:11:18;;;;;;;12.00;4.40;;;;;;;9.67;61.69;102921.16;5083151;28;20134;-69
2022/03/17 10:13:46;;;;;;;15.57;3.85;;;;;;;9.66;61.07;102922.09;5102505;28;20093;-68
2022/03/17 10:16:22;;;;;;;13.00;3.70;;;;;;;9.69;61.46;102929.97;5079166;28;20138;-69
2022/03/17 10:19:08;;;;;;;14.18;4.00;;;;;;;9.78;62.30;102937.72;5100272;28;20027;-69
2022/03/17 10:21:35;;;;;;;10.32;3.67;;;;;;;9.76;60.89;102936.88;5097754;28;20036;-69
2022/03/17 10:24:04;;;;;;;11.13;3.38;;;;;;;9.80;60.74;102945.66;5093994;28;20471;-68
2022/03/17 10:26:29;;;;;;;14.48;4.05;;;;;;;9.75;61.21;102949.28;5095107;28;20405;-68
2022/03/17 10:29:06;;;;;;;15.88;4.10;;;;;;;9.80;61.12;102954.50;5102879;28;20455;-68
2022/03/17 10:31:54;;;;;;;12.95;4.10;;;;;;;9.74;61.18;102954.66;5076703;28;20028;-69
2022/03/17 10:34:21;;;;;;;9.43;3.90;;;;;;;9.61;60.62;102953.22;5081551;28;20020;-69
2022/03/17 10:36:48;;;;;;;12.65;3.25;;;;;;;9.66;61.56;102969.91;5078025;28;20022;-69
2022/03/17 10:39:14;;;;;;;10.75;3.22;;;;;;;9.66;60.89;102964.59;5080147;28;20031;-69
2022/03/17 10:41:41;;;;;;;10.70;3.45;;;;;;;9.57;59.99;102948.91;5090277;28;20027;-69
2022/03/17 10:44:12;;;;;;;9.77;3.60;;;;;;;9.75;60.40;102980.31;5094385;28;20020;-69
2022/03/17 10:46:38;;;;;;;13.00;3.88;;;;;;;9.83;60.15;102981.00;5084855;28;20069;-69
2022/03/17 10:49:07;;;;;;;12.05;3.58;;;;;;;9.84;60.35;102987.19;5101128;28;20040;-69
2022/03/17 10:51:42;;;;;;;8.55;3.17;;;;;;;9.93;59.84;102992.25;5095096;28;20075;-69
2022/03/17 10:54:09;;;;;;;9.93;3.72;;;;;;;9.92;59.96;102991.38;5102782;28;20024;-69
2022/03/17 10:56:36;;;;;;;11.32;3.83;;;;;;;9.98;60.45;102998.34;5095140;28;20028;-69
2022/03/17 10:59:03;;;;;;;11.50;4.13;;;;;;;9.93;60.00;103002.88;5098600;28;20023;-69
2022/03/17 11:01:40;;;;;;;10.88;3.97;;;;;;;9.92;60.06;103017.97;5092206;28;20027;-70
2022/03/17 11:04:06;;;;;;;16.30;3.67;;;;;;;9.76;58.67;103014.84;5106714;28;20036;-70
2022/03/17 11:06:38;;;;;;;12.77;4.22;;;;;;;9.70;59.86;103016.75;5102988;28;20111;-70
2022/03/17 11:09:08;;;;;;;10.60;3.85;;;;;;;9.87;58.62;103029.63;5059419;28;20433;-70
2022/03/17 11:11:37;;;;;;;9.73;3.35;;;;;;;10.01;57.67;103025.69;5091969;28;20053;-70
2022/03/17 11:14:06;;;;;;;8.15;3.47;;;;;;;10.19;56.41;103042.09;5095245;28;20027;-70
2022/03/17 11:16:41;;;;;;;4.88;3.13;;;;;;;10.38;56.29;103039.84;5084152;28;20036;-70
2022/03/17 11:19:12;;;;;;;8.35;3.33;;;;;;;10.60;55.61;103042.81;5103229;28;20106;-69
2022/03/17 11:21:48;;;;;;;9.77;3.80;;;;;;;10.73;55.41;103044.19;5098179;28;20111;-69
2022/03/17 11:24:22;;;;;;;11.15;3.30;;;;;;;10.86;54.50;103052.72;5089678;28;20371;-70
2022/03/17 11:26:48;;;;;;;7.18;2.85;;;;;;;10.78;53.54;103044.06;5098762;28;20016;-69
2022/03/17 11:29:21;;;;;;;7.70;3.50;;;;;;;10.76;53.65;103037.91;5077724;28;20457;-69
2022/03/17 11:31:50;;;;;;;8.07;3.70;;;;;;;10.84;53.63;103052.75;5086241;28;20028;-69
2022/03/17 11:34:46;;;;;;;9.15;3.50;;;;;;;10.97;53.92;103050.63;5074606;28;20024;-69
2022/03/17 11:37:27;;;;;;;8.65;3.40;;;;;;;11.05;53.94;103053.91;5079826;28;20512;-69
2022/03/17 11:39:58;;;;;;;11.38;3.80;;;;;;;11.19;54.05;103050.84;5101923;28;20024;-69